createdAt,value
2023-05-04T00:01:45.877Z,6.15
2023-05-04T00:06:47.395Z,5.68
2023-05-04T00:11:49.373Z,5.93
2023-05-04T00:16:50.078Z,5.95
2023-05-04T00:21:50.801Z,6.22
2023-05-04T00:26:52.864Z,5.57
2023-05-04T00:31:54.056Z,6.35
2023-05-04T00:36:55.979Z,6.60
2023-05-04T00:41:57.994Z,6.18
2023-05-04T00:46:59.136Z,6.10
2023-05-04T00:52:01.613Z,6.25
2023-05-04T00:57:04.470Z,6.63
2023-05-04T01:02:05.139Z,6.07
2023-05-04T01:07:15.592Z,5.95
2023-05-04T01:12:22.499Z,6.50
2023-05-04T01:17:23.412Z,5.70
2023-05-04T01:22:25.510Z,5.55
2023-05-04T01:27:37.285Z,6.63
2023-05-04T01:32:40.911Z,6.47
2023-05-04T01:37:43.427Z,7.32
2023-05-04T01:42:44.085Z,5.53
2023-05-04T01:47:45.892Z,5.82
2023-05-04T01:52:47.932Z,5.80
2023-05-04T01:57:48.716Z,5.75
2023-05-04T02:02:49.462Z,6.03
2023-05-04T02:07:54.439Z,6.15
2023-05-04T02:12:55.695Z,6.47
2023-05-04T02:17:57.584Z,6.15
2023-05-04T02:22:59.709Z,5.93
2023-05-04T02:28:00.804Z,6.32
2023-05-04T02:33:01.618Z,5.88
2023-05-04T02:38:04.193Z,6.65
2023-05-04T02:43:06.113Z,6.35
2023-05-04T02:48:08.994Z,6.00
2023-05-04T02:53:11.102Z,5.43
2023-05-04T02:58:11.783Z,6.63
2023-05-04T03:03:12.784Z,6.47
2023-05-04T03:08:14.780Z,6.10
2023-05-04T03:13:16.629Z,6.22
2023-05-04T03:18:17.541Z,6.85
2023-05-04T03:23:20.124Z,6.97
2023-05-04T03:28:21.323Z,6.50
2023-05-04T03:33:22.074Z,6.68
2023-05-04T03:38:24.184Z,6.80
2023-05-04T03:43:26.730Z,6.53
2023-05-04T03:48:28.728Z,6.70
2023-05-04T03:53:30.754Z,6.72
2023-05-04T03:58:31.468Z,5.72
2023-05-04T04:03:36.453Z,7.13
2023-05-04T04:08:38.577Z,6.65
2023-05-04T04:13:39.356Z,6.18
2023-05-04T04:18:40.284Z,8.20
2023-05-04T04:23:42.248Z,7.25
2023-05-04T04:28:44.860Z,6.80
2023-05-04T04:33:45.548Z,7.22
2023-05-04T04:38:47.685Z,6.82
2023-05-04T04:43:48.390Z,7.40
2023-05-04T04:48:49.210Z,6.95
2023-05-04T04:53:51.352Z,7.30
2023-05-04T04:58:52.113Z,6.55
2023-05-04T05:03:53.000Z,7.28
2023-05-04T05:08:55.021Z,6.70
2023-05-04T05:13:56.193Z,6.97
2023-05-04T05:18:56.882Z,6.57
2023-05-04T05:23:58.916Z,6.60
2023-05-04T05:28:59.571Z,6.38
2023-05-04T05:34:00.218Z,6.57
2023-05-04T05:39:02.253Z,6.63
2023-05-04T05:44:02.914Z,6.65
2023-05-04T05:49:05.942Z,6.55
2023-05-04T05:54:07.978Z,6.28
2023-05-04T05:59:08.682Z,6.28
2023-05-04T06:04:09.566Z,6.20
2023-05-04T06:09:11.772Z,5.13
2023-05-04T06:14:12.509Z,5.75
2023-05-04T06:19:13.172Z,6.07
2023-05-04T06:24:15.136Z,5.28
2023-05-04T06:29:15.873Z,5.50
2023-05-04T06:34:17.944Z,5.43
2023-05-04T06:39:20.023Z,4.72
2023-05-04T06:44:20.753Z,5.55
2023-05-04T06:49:21.453Z,4.82
2023-05-04T06:54:23.500Z,4.20
2023-05-04T06:59:24.180Z,4.35
2023-05-04T07:04:25.007Z,4.43
2023-05-04T07:09:27.024Z,4.65
2023-05-04T07:14:27.687Z,4.85
2023-05-04T07:19:28.526Z,4.40
2023-05-04T07:24:32.059Z,3.33
2023-05-04T07:29:32.762Z,3.38
2023-05-04T07:34:45.055Z,3.80
2023-05-04T07:39:51.107Z,3.55
2023-05-04T07:44:53.020Z,3.20
2023-05-04T07:49:53.878Z,2.65
2023-05-04T07:54:55.956Z,3.28
2023-05-04T07:59:56.815Z,3.17
2023-05-04T08:04:57.564Z,2.97
2023-05-04T08:09:59.662Z,2.97
2023-05-04T08:15:00.556Z,2.75
2023-05-04T08:20:01.654Z,2.60
2023-05-04T08:25:04.266Z,2.25
2023-05-04T08:30:06.372Z,2.75
2023-05-04T08:35:08.016Z,2.30
2023-05-04T08:40:10.915Z,2.28
2023-05-04T08:45:12.082Z,2.70
2023-05-04T08:50:13.003Z,2.80
2023-05-04T08:55:17.040Z,2.45
2023-05-04T09:00:18.922Z,2.28
2023-05-04T09:05:19.761Z,2.22
2023-05-04T09:10:22.247Z,3.45
2023-05-04T09:15:23.701Z,2.78
2023-05-04T09:20:25.661Z,2.28
2023-05-04T09:25:27.856Z,2.10
2023-05-04T09:30:28.885Z,2.72
2023-05-04T09:35:33.650Z,2.67
2023-05-04T09:40:37.807Z,2.17
2023-05-04T09:45:42.308Z,2.33
2023-05-04T09:50:49.359Z,2.88
2023-05-04T09:56:03.921Z,2.30
2023-05-04T10:01:06.401Z,2.38
2023-05-04T10:06:09.008Z,2.25
2023-05-04T10:11:11.219Z,1.90
2023-05-04T10:16:24.907Z,1.90
2023-05-04T10:21:31.798Z,2.42
2023-05-04T10:27:00.465Z,2.25
2023-05-04T10:32:01.759Z,2.15
2023-05-04T10:37:04.050Z,2.33
2023-05-04T10:42:07.777Z,1.92
2023-05-04T10:47:09.116Z,2.45
2023-05-04T10:52:12.595Z,2.10
2023-05-04T10:57:17.526Z,1.88
2023-05-04T11:02:23.916Z,1.92
2023-05-04T11:07:34.046Z,1.83
2023-05-04T11:12:36.700Z,2.10
2023-05-04T11:17:46.433Z,2.47
2023-05-04T11:22:47.477Z,2.03
2023-05-04T11:27:50.206Z,2.13
2023-05-04T11:32:51.204Z,2.20
2023-05-04T11:37:51.910Z,2.10
2023-05-04T11:42:56.941Z,2.20
2023-05-04T11:47:58.846Z,1.77
2023-05-04T11:53:07.422Z,1.95
2023-05-04T11:58:10.540Z,2.20
2023-05-04T12:03:13.867Z,2.65
2023-05-04T12:08:24.008Z,2.72
2023-05-04T12:13:26.117Z,2.50
2023-05-04T12:18:29.764Z,2.10
2023-05-04T12:23:31.816Z,2.92
2023-05-04T12:28:34.680Z,1.92
2023-05-04T12:33:36.248Z,2.42
2023-05-04T12:38:37.554Z,2.00
2023-05-04T12:43:39.737Z,1.75
2023-05-04T12:48:42.438Z,1.67
2023-05-04T12:53:43.715Z,1.75
2023-05-04T12:58:45.727Z,1.67
2023-05-04T13:03:46.618Z,2.55
2023-05-04T13:08:48.408Z,1.90
2023-05-04T13:13:50.452Z,2.85
2023-05-04T13:18:51.155Z,1.92
2023-05-04T13:23:52.245Z,1.98
2023-05-04T13:28:54.366Z,1.80
2023-05-04T13:33:55.024Z,1.95
2023-05-04T13:38:55.672Z,1.52
2023-05-04T13:43:57.840Z,1.60
2023-05-04T13:48:58.540Z,1.88
2023-05-04T13:54:01.113Z,2.03
2023-05-04T13:59:04.443Z,1.98
2023-05-04T14:04:05.429Z,2.10
2023-05-04T14:09:06.284Z,1.98
2023-05-04T14:14:09.383Z,2.28
2023-05-04T14:19:10.111Z,1.88
2023-05-04T14:24:10.961Z,1.65
2023-05-04T14:29:12.939Z,2.20
2023-05-04T14:34:13.666Z,1.65
2023-05-04T14:39:14.367Z,1.88
2023-05-04T14:44:16.474Z,2.30
2023-05-04T14:49:28.890Z,1.80
2023-05-04T14:54:36.128Z,1.88
2023-05-04T14:59:38.614Z,1.83
2023-05-04T15:04:39.672Z,1.83
2023-05-04T15:09:40.404Z,1.67
2023-05-04T15:14:42.449Z,1.77
2023-05-04T15:19:43.605Z,2.35
2023-05-04T15:24:44.404Z,1.80
2023-05-04T15:29:46.421Z,1.83
2023-05-04T15:35:01.020Z,1.60
2023-05-04T15:40:05.686Z,1.98
2023-05-04T15:45:10.523Z,2.08
2023-05-04T15:50:11.830Z,1.92
2023-05-04T15:55:23.318Z,2.00
2023-05-04T16:00:27.900Z,1.90
2023-05-04T16:05:28.637Z,1.55
2023-05-04T16:10:29.374Z,1.77
2023-05-04T16:15:31.437Z,1.38
2023-05-04T16:20:32.226Z,1.65
2023-05-04T16:25:34.269Z,1.60
2023-05-04T16:30:36.519Z,1.73
2023-05-04T16:35:37.482Z,1.63
2023-05-04T16:40:38.489Z,1.50
2023-05-04T16:45:40.631Z,1.98
2023-05-04T16:50:43.348Z,1.90
2023-05-04T16:55:44.008Z,1.60
2023-05-04T17:00:46.010Z,1.88
2023-05-04T17:05:46.682Z,1.90
2023-05-04T17:10:47.380Z,2.60
2023-05-04T17:15:49.409Z,2.35
2023-05-04T17:20:50.082Z,2.13
2023-05-04T17:25:50.940Z,1.67
2023-05-04T17:30:52.948Z,2.08
2023-05-04T17:35:54.105Z,1.98
2023-05-04T17:40:54.787Z,2.03
2023-05-04T17:45:57.006Z,3.03
2023-05-04T17:50:57.925Z,3.60
2023-05-04T17:55:58.576Z,2.05
2023-05-04T18:01:00.642Z,2.45
2023-05-04T18:06:01.392Z,2.25
2023-05-04T18:11:02.193Z,2.20
2023-05-04T18:16:04.561Z,1.88
2023-05-04T18:21:05.756Z,2.58
2023-05-04T18:26:06.546Z,2.10
2023-05-04T18:31:08.619Z,1.88
2023-05-04T18:36:09.411Z,2.42
2023-05-04T18:41:12.036Z,2.97
2023-05-04T18:46:14.087Z,1.98
2023-05-04T18:51:14.771Z,2.67
2023-05-04T18:56:16.524Z,2.50
2023-05-04T19:01:18.792Z,2.95
2023-05-04T19:06:19.736Z,2.30
2023-05-04T19:11:20.478Z,2.88
2023-05-04T19:16:22.692Z,2.97
2023-05-04T19:21:23.370Z,2.60
2023-05-04T19:26:24.460Z,2.42
2023-05-04T19:31:26.472Z,2.55
2023-05-04T19:36:27.397Z,2.65
2023-05-04T19:41:28.110Z,2.58
2023-05-04T19:46:31.973Z,2.55
2023-05-04T19:51:33.900Z,3.35
2023-05-04T19:56:34.609Z,3.03
2023-05-04T20:01:36.608Z,3.17
2023-05-04T20:06:37.446Z,2.67
2023-05-04T20:11:38.300Z,3.15
2023-05-04T20:16:40.366Z,2.97
2023-05-04T20:21:41.138Z,2.60
2023-05-04T20:26:41.904Z,2.75
2023-05-04T20:31:44.001Z,3.47
2023-05-04T20:36:46.162Z,3.38
2023-05-04T20:41:47.063Z,3.40
2023-05-04T20:46:49.114Z,3.22
2023-05-04T20:51:49.832Z,4.25
2023-05-04T20:56:50.574Z,3.47
2023-05-04T21:01:52.549Z,3.97
2023-05-04T21:06:53.336Z,3.63
2023-05-04T21:11:54.011Z,4.07
2023-05-04T21:16:56.016Z,4.35
2023-05-04T21:21:58.950Z,3.83
2023-05-04T21:27:00.485Z,4.63
2023-05-04T21:32:03.800Z,4.28
2023-05-04T21:37:04.798Z,3.80
2023-05-04T21:42:05.522Z,3.97
2023-05-04T21:47:08.127Z,4.07
2023-05-04T21:52:08.854Z,3.15
2023-05-04T21:57:09.568Z,3.85
2023-05-04T22:02:11.778Z,3.70
2023-05-04T22:07:12.665Z,3.50
2023-05-04T22:12:13.338Z,3.67
2023-05-04T22:17:15.780Z,3.50
2023-05-04T22:22:16.609Z,3.85
2023-05-04T22:27:18.364Z,4.63
2023-05-04T22:32:20.465Z,3.75
2023-05-04T22:37:22.368Z,3.83
2023-05-04T22:42:23.056Z,3.78
2023-05-04T22:47:25.145Z,3.88
2023-05-04T22:52:25.960Z,3.67
2023-05-04T22:57:26.820Z,3.90
2023-05-04T23:02:28.884Z,3.97
2023-05-04T23:07:29.715Z,4.78
2023-05-04T23:12:30.446Z,4.80
2023-05-04T23:17:34.170Z,4.55
2023-05-04T23:22:35.067Z,5.20
2023-05-04T23:27:35.718Z,4.85
2023-05-04T23:32:37.916Z,4.85
2023-05-04T23:37:38.803Z,4.75
2023-05-04T23:42:39.448Z,4.47
2023-05-04T23:47:41.432Z,4.80
2023-05-04T23:52:42.160Z,4.85
2023-05-04T23:57:44.328Z,5.10
